Time;durP1;ratioP1;P1;durP2;ratioP2;P2;SDS_P1;SDS_P2;PMS_P1;PMS_P2;Temp;Humidity;BMP_temperature;BMP_pressure;BME280_temperature;BME280_humidity;BME280_pressure;Samples;Min_cycle;Max_cycle;Signal;HPM_P1;HPM_P2
2021/10/23 00:02:23;;;;;;;9.80;3.50;;;;;;;7.35;69.11;100686.06;10344261;28;20058;-61
2021/10/23 00:07:24;;;;;;;11.18;3.75;;;;;;;7.25;69.22;100686.41;10344687;28;20056;-61
2021/10/23 00:12:27;;;;;;;11.02;3.85;;;;;;;7.12;69.60;100696.41;10344813;28;20053;-61
2021/10/23 00:17:28;;;;;;;8.45;3.97;;;;;;;7.01;69.91;100678.56;10343699;28;20050;-61
2021/10/23 00:22:31;;;;;;;8.82;3.95;;;;;;;6.99;69.82;100695.13;10343731;28;20073;-61
2021/10/23 00:27:32;;;;;;;8.23;3.70;;;;;;;7.02;69.66;100710.63;10343787;28;20046;-61
2021/10/23 00:32:34;;;;;;;8.45;4.05;;;;;;;7.10;69.70;100713.81;10344231;28;20264;-61
2021/10/23 00:37:36;;;;;;;9.32;4.47;;;;;;;7.04;70.07;100732.25;10344250;28;20084;-61
2021/10/23 00:42:38;;;;;;;12.85;4.60;;;;;;;7.07;69.94;100719.13;10342928;28;20385;-61
2021/10/23 00:47:40;;;;;;;10.18;4.72;;;;;;;7.14;69.84;100712.81;10343139;28;20129;-61
2021/10/23 00:52:42;;;;;;;12.38;4.03;;;;;;;7.15;69.60;100722.31;10343113;28;20302;-61
2021/10/23 00:57:44;;;;;;;9.15;4.25;;;;;;;7.18;69.60;100743.88;10343858;28;20042;-61
2021/10/23 01:02:45;;;;;;;10.98;4.60;;;;;;;7.25;69.35;100747.13;10341232;28;20056;-61
2021/10/23 01:07:48;;;;;;;7.97;4.05;;;;;;;7.22;69.61;100751.59;10342676;28;20050;-61
2021/10/23 01:12:50;;;;;;;8.73;4.15;;;;;;;7.25;69.57;100746.25;10342813;28;20053;-61
2021/10/23 01:17:55;;;;;;;10.18;4.18;;;;;;;7.31;69.39;100744.31;10349657;28;20058;-61
2021/10/23 01:22:56;;;;;;;13.30;4.20;;;;;;;7.32;69.31;100751.22;10381676;28;20056;-61
2021/10/23 01:28:01;;;;;;;11.27;4.80;;;;;;;7.26;69.22;100748.84;10350781;28;20057;-61
2021/10/23 01:33:03;;;;;;;10.40;4.40;;;;;;;7.10;69.38;100752.84;10350377;28;20129;-61
2021/10/23 01:38:04;;;;;;;11.05;5.15;;;;;;;7.01;69.51;100756.59;10350549;28;20060;-61
2021/10/23 01:43:06;;;;;;;12.65;5.00;;;;;;;6.92;69.49;100763.81;10349226;28;20050;-62
2021/10/23 01:48:08;;;;;;;9.80;4.65;;;;;;;6.85;69.65;100770.13;10350306;28;20164;-61
2021/10/23 01:53:09;;;;;;;14.20;5.47;;;;;;;6.81;69.81;100784.09;10350056;28;20413;-61
2021/10/23 01:58:13;;;;;;;12.88;4.60;;;;;;;6.80;69.71;100780.66;10349958;28;20125;-61
2021/10/23 02:03:15;;;;;;;12.45;4.85;;;;;;;6.80;69.81;100770.25;10354346;28;20050;-61
2021/10/23 02:08:16;;;;;;;11.43;4.25;;;;;;;6.87;69.52;100758.78;10356828;28;20038;-61
2021/10/23 02:13:19;;;;;;;9.07;4.60;;;;;;;6.95;69.28;100771.53;10356725;28;20049;-61
2021/10/23 02:18:21;;;;;;;9.75;4.70;;;;;;;6.87;69.44;100773.53;10355448;28;20140;-61
2021/10/23 02:23:23;;;;;;;8.35;4.60;;;;;;;6.92;69.32;100753.41;10355898;28;20414;-61
2021/10/23 02:28:25;;;;;;;8.85;4.38;;;;;;;7.01;69.25;100755.72;10356291;28;20737;-61
2021/10/23 02:33:26;;;;;;;12.10;3.92;;;;;;;7.02;68.97;100754.84;10355988;28;20119;-61
2021/10/23 02:38:28;;;;;;;7.53;3.75;;;;;;;7.09;69.08;100743.31;10354906;28;20041;-61
2021/10/23 02:43:31;;;;;;;8.30;3.85;;;;;;;7.09;68.91;100752.00;10355446;28;20046;-61
2021/10/23 02:48:32;;;;;;;9.98;3.67;;;;;;;7.09;68.84;100738.13;10355215;28;20050;-61
2021/10/23 02:53:35;;;;;;;9.88;3.30;;;;;;;7.04;69.04;100732.25;10355136;28;20045;-61
2021/10/23 02:58:37;;;;;;;7.32;3.47;;;;;;;7.02;68.83;100736.63;10353535;28;20050;-61
2021/10/23 03:03:38;;;;;;;8.05;3.50;;;;;;;6.98;68.94;100737.59;10351416;28;20056;-61
2021/10/23 03:08:40;;;;;;;8.55;3.58;;;;;;;6.91;69.04;100736.97;10349881;28;20060;-61
2021/10/23 03:13:42;;;;;;;8.23;3.90;;;;;;;6.91;69.26;100756.91;10346766;28;20054;-61
2021/10/23 03:18:44;;;;;;;8.80;4.18;;;;;;;6.87;69.15;100753.56;10347680;28;20058;-61
2021/10/23 03:23:45;;;;;;;7.45;4.18;;;;;;;6.79;69.38;100754.72;10347725;28;20060;-61
2021/10/23 03:28:47;;;;;;;10.30;4.50;;;;;;;6.85;69.19;100757.13;10346376;28;20060;-61
2021/10/23 03:33:49;;;;;;;10.82;5.10;;;;;;;6.80;69.25;100762.44;10347695;28;20056;-61
2021/10/23 03:38:50;;;;;;;8.57;4.10;;;;;;;6.71;69.41;100765.34;10345808;28;20049;-61
2021/10/23 03:43:52;;;;;;;13.20;4.38;;;;;;;6.57;69.57;100764.91;10345699;28;20552;-61
2021/10/23 03:48:54;;;;;;;9.52;4.28;;;;;;;6.46;69.95;100776.50;10346194;28;20053;-61
2021/10/23 03:53:55;;;;;;;10.02;4.45;;;;;;;6.42;69.86;100777.50;10345561;28;20152;-61
2021/10/23 03:58:57;;;;;;;12.15;4.90;;;;;;;6.35;69.93;100789.81;10346394;28;20046;-61
2021/10/23 04:03:59;;;;;;;8.73;4.20;;;;;;;6.29;69.97;100806.44;10344885;28;20465;-61
2021/10/23 04:09:00;;;;;;;10.20;4.57;;;;;;;6.27;70.08;100823.81;10345497;28;20061;-61
2021/10/23 04:14:03;;;;;;;10.77;5.60;;;;;;;6.18;70.19;100815.41;10345466;28;20068;-62
2021/10/23 04:19:05;;;;;;;10.23;5.40;;;;;;;6.12;70.21;100825.97;10344680;28;20060;-61
2021/10/23 04:24:09;;;;;;;11.18;6.28;;;;;;;6.07;70.32;100831.28;10345351;28;20050;-61
2021/10/23 04:29:10;;;;;;;8.35;4.97;;;;;;;6.02;69.92;100838.31;10343869;28;21143;-61
2021/10/23 04:34:12;;;;;;;11.98;6.03;;;;;;;5.78;69.85;100854.53;10344570;28;20056;-61
2021/10/23 04:39:15;;;;;;;12.43;6.00;;;;;;;5.67;70.06;100853.97;10344214;28;20526;-61
2021/10/23 04:44:17;;;;;;;11.88;5.90;;;;;;;5.60;70.13;100851.56;10344652;28;20046;-61
2021/10/23 04:49:19;;;;;;;13.88;6.78;;;;;;;5.64;69.95;100846.25;10343874;28;20037;-62
2021/10/23 04:54:21;;;;;;;10.00;5.70;;;;;;;5.57;70.23;100846.44;10344683;28;20045;-61
2021/10/23 04:59:22;;;;;;;13.00;6.18;;;;;;;5.54;69.78;100848.22;10343584;28;20049;-61
2021/10/23 05:04:24;;;;;;;9.52;5.47;;;;;;;5.45;69.79;100848.44;10344498;28;20053;-61
2021/10/23 05:09:26;;;;;;;11.98;5.90;;;;;;;5.40;69.94;100841.66;10342934;28;20056;-61
2021/10/23 05:14:27;;;;;;;9.75;6.15;;;;;;;5.37;69.53;100837.41;10343674;28;20054;-61
2021/10/23 05:19:29;;;;;;;8.43;5.00;;;;;;;5.31;69.47;100831.53;10344196;28;20053;-62
2021/10/23 05:24:31;;;;;;;415.30;13.93;;;;;;;5.16;69.43;100834.47;10343795;28;20052;-62
2021/10/23 05:29:32;;;;;;;527.83;18.95;;;;;;;5.04;69.45;100814.03;10343208;28;20057;-62
2021/10/23 05:34:34;;;;;;;496.83;19.23;;;;;;;4.96;69.74;100813.34;10343720;28;20312;-62
2021/10/23 05:39:36;;;;;;;648.53;23.42;;;;;;;4.73;69.79;100826.81;10342853;28;20054;-61
2021/10/23 05:44:38;;;;;;;499.40;14.18;;;;;;;4.60;69.88;100826.22;10343444;28;20073;-62
2021/10/23 05:49:40;;;;;;;77.65;5.65;;;;;;;4.66;69.80;100844.22;10343177;28;20049;-62
2021/10/23 05:54:42;;;;;;;75.78;8.55;;;;;;;4.47;69.79;100860.19;10342434;28;20060;-61
2021/10/23 05:59:46;;;;;;;12.23;5.72;;;;;;;4.50;70.06;100876.50;10342583;28;20528;-62
2021/10/23 06:04:52;;;;;;;5.57;3.95;;;;;;;4.78;70.09;100887.16;10349588;28;20132;-62
2021/10/23 06:09:56;;;;;;;249.52;12.65;;;;;;;4.90;69.61;100899.03;10350460;28;20041;-62
2021/10/23 06:14:58;;;;;;;230.05;14.65;;;;;;;4.97;69.40;100905.75;10349391;28;20136;-62
2021/10/23 06:20:01;;;;;;;13.13;7.85;;;;;;;4.99;69.54;100899.66;10349263;28;20068;-62
2021/10/23 06:25:04;;;;;;;10.25;5.63;;;;;;;5.32;69.28;100892.88;10348177;28;20096;-62
2021/10/23 06:30:06;;;;;;;8.57;5.90;;;;;;;5.55;69.02;100901.81;10348515;28;20088;-62
2021/10/23 06:35:09;;;;;;;8.05;5.72;;;;;;;5.67;68.74;100911.06;10349595;28;20507;-62
2021/10/23 06:40:11;;;;;;;10.77;6.05;;;;;;;5.85;68.43;100912.34;10348969;28;20054;-63
2021/10/23 06:45:16;;;;;;;9.73;5.45;;;;;;;5.89;68.33;100908.78;10339375;28;20665;-62
2021/10/23 06:50:17;;;;;;;11.48;7.28;;;;;;;6.10;68.06;100932.44;10344448;28;20052;-63
2021/10/23 06:55:19;;;;;;;14.38;8.73;;;;;;;6.16;67.80;100942.72;10346544;28;20143;-63
2021/10/23 07:00:21;;;;;;;10.90;6.22;;;;;;;6.32;67.88;100946.66;10346770;28;20054;-62
2021/10/23 07:05:23;;;;;;;12.48;6.50;;;;;;;6.59;67.46;100959.78;10343488;28;20100;-62
2021/10/23 07:10:26;;;;;;;9.18;6.07;;;;;;;6.69;67.49;100950.84;10346131;28;20574;-62
2021/10/23 07:15:27;;;;;;;8.23;5.75;;;;;;;6.56;67.20;100962.47;10345416;28;20080;-62
2021/10/23 07:20:29;;;;;;;7.95;5.35;;;;;;;6.71;67.26;100960.31;10346385;28;20069;-62
2021/10/23 07:25:31;;;;;;;14.00;8.77;;;;;;;6.70;66.88;100973.34;10346546;28;20049;-62
2021/10/23 07:30:33;;;;;;;8.07;5.03;;;;;;;6.65;67.28;100988.22;10345392;28;20541;-62
2021/10/23 07:35:36;;;;;;;6.50;4.20;;;;;;;6.77;67.60;100999.16;10345365;28;20469;-62
2021/10/23 07:40:37;;;;;;;7.10;3.88;;;;;;;6.89;67.62;100991.00;10344534;28;20050;-62
2021/10/23 07:45:40;;;;;;;6.28;4.10;;;;;;;7.06;67.22;101003.53;10345962;28;20213;-62
2021/10/23 07:50:42;;;;;;;9.77;4.90;;;;;;;6.77;67.48;101021.69;10345662;28;20054;-61
2021/10/23 07:55:44;;;;;;;12.45;6.72;;;;;;;6.48;68.56;101032.84;10344390;28;20056;-62
2021/10/23 08:00:46;;;;;;;8.52;4.82;;;;;;;6.69;68.78;101040.09;10358192;28;20080;-61
2021/10/23 08:05:48;;;;;;;9.07;5.20;;;;;;;7.15;67.98;101053.53;10345210;28;20145;-62
2021/10/23 08:10:49;;;;;;;12.88;4.93;;;;;;;7.39;67.63;101061.53;10343293;28;20546;-61
2021/10/23 08:15:51;;;;;;;8.73;4.97;;;;;;;7.75;67.29;101063.91;10343825;28;20536;-61
2021/10/23 08:20:53;;;;;;;10.77;6.82;;;;;;;7.84;67.01;101058.44;10344909;28;20060;-62
2021/10/23 08:25:55;;;;;;;10.40;6.75;;;;;;;7.92;66.80;101077.28;10343473;28;20081;-62
2021/10/23 08:30:57;;;;;;;10.57;7.22;;;;;;;8.07;66.66;101077.69;10343328;28;20539;-61
2021/10/23 08:35:59;;;;;;;9.10;6.28;;;;;;;8.16;66.51;101074.84;10350090;28;20080;-62
2021/10/23 08:41:01;;;;;;;9.32;5.95;;;;;;;8.00;66.59;101077.91;10351596;28;20163;-62
2021/10/23 08:46:05;;;;;;;9.43;5.20;;;;;;;8.09;66.28;101095.00;10347968;28;20049;-62
2021/10/23 08:51:09;;;;;;;6.55;4.28;;;;;;;8.27;66.00;101088.38;10347445;28;20052;-62
2021/10/23 08:56:12;;;;;;;9.38;4.90;;;;;;;8.40;65.68;101090.56;10343688;28;20061;-62
2021/10/23 09:01:15;;;;;;;7.95;4.95;;;;;;;8.47;65.59;101097.25;10343306;28;20066;-62
2021/10/23 09:06:32;;;;;;;11.10;5.10;;;;;;;8.54;65.76;101103.13;10341217;28;20236;-62
2021/10/23 09:11:37;;;;;;;11.60;7.18;;;;;;;8.72;65.37;101098.16;10341525;28;20193;-62
2021/10/23 09:16:39;;;;;;;10.68;6.55;;;;;;;8.91;64.93;101092.31;10342370;28;20046;-62
2021/10/23 09:21:41;;;;;;;10.20;5.03;;;;;;;9.12;64.51;101086.31;10346857;28;20077;-62
2021/10/23 09:26:45;;;;;;;8.95;4.80;;;;;;;9.27;64.76;101081.44;10352940;28;20058;-62
2021/10/23 09:31:48;;;;;;;7.38;5.55;;;;;;;9.41;64.93;101081.78;10348533;28;20049;-62
2021/10/23 09:36:55;;;;;;;14.13;7.18;;;;;;;9.47;64.39;101089.38;10357439;28;20042;-63
2021/10/23 09:42:16;;;;;;;10.65;5.55;;;;;;;9.36;64.47;101095.91;10354033;28;20413;-63
2021/10/23 09:47:18;;;;;;;9.48;4.60;;;;;;;9.56;64.42;101107.31;10356148;28;20425;-62
2021/10/23 09:52:19;;;;;;;7.47;4.40;;;;;;;9.88;63.78;101105.28;10354733;28;20103;-63
2021/10/23 09:57:29;;;;;;;8.55;4.47;;;;;;;10.22;62.35;101108.28;10351364;28;20050;-63
2021/10/23 10:02:32;;;;;;;7.43;3.90;;;;;;;10.56;62.13;101107.81;10350936;28;20143;-62
2021/10/23 10:07:35;;;;;;;7.47;3.80;;;;;;;10.70;61.51;101114.19;10350708;28;20057;-62
2021/10/23 10:12:37;;;;;;;9.18;3.78;;;;;;;10.96;60.95;101120.91;10347633;28;20132;-63
2021/10/23 10:17:39;;;;;;;10.73;4.75;;;;;;;11.00;60.88;101120.72;10366595;28;20046;-62
2021/10/23 10:22:52;;;;;;;9.15;4.80;;;;;;;10.90;60.40;101121.19;10350769;28;20050;-62
2021/10/23 10:27:54;;;;;;;9.38;4.93;;;;;;;10.93;60.71;101132.34;10348440;28;20505;-62
2021/10/23 10:33:43;;;;;;;8.88;4.90;;;;;;;11.00;59.57;101128.59;10348753;28;20060;-62
2021/10/23 10:39:06;;;;;;;9.48;4.75;;;;;;;11.28;60.45;101125.66;10355540;28;20038;-62
2021/10/23 10:44:11;;;;;;;8.35;3.80;;;;;;;11.36;59.76;101126.16;10348459;28;20053;-63
2021/10/23 10:49:40;;;;;;;10.48;4.25;;;;;;;11.58;58.50;101124.28;10365856;28;20056;-62
2021/10/23 10:55:14;;;;;;;7.80;3.47;;;;;;;11.68;58.29;101116.88;10348708;28;20075;-62
2021/10/23 11:00:16;;;;;;;6.82;3.78;;;;;;;11.78;57.77;101112.91;10349322;28;20422;-62
2021/10/23 11:05:20;;;;;;;8.07;4.53;;;;;;;11.91;57.71;101107.03;10361159;28;20140;-62
2021/10/23 11:10:52;;;;;;;9.45;4.25;;;;;;;12.10;57.23;101109.63;10347523;28;20064;-62
2021/10/23 11:15:55;;;;;;;9.70;4.20;;;;;;;12.21;57.41;101102.13;10359395;28;20054;-62
2021/10/23 11:20:57;;;;;;;7.05;4.03;;;;;;;12.18;57.40;101104.88;10363523;28;20149;-63
2021/10/23 11:26:05;;;;;;;9.25;4.53;;;;;;;12.12;57.63;101102.53;10361941;28;20323;-62
2021/10/23 11:31:22;;;;;;;8.43;4.10;;;;;;;12.21;56.06;101104.75;10345825;28;20076;-62
2021/10/23 11:36:24;;;;;;;10.25;3.10;;;;;;;12.17;56.51;101111.06;10351318;28;20061;-62
2021/10/23 11:41:27;;;;;;;10.57;3.42;;;;;;;12.40;56.21;101102.09;10367576;28;20220;-63
2021/10/23 11:46:29;;;;;;;10.95;4.28;;;;;;;12.42;56.26;101098.47;10371720;28;20518;-62
2021/10/23 11:51:31;;;;;;;8.13;3.60;;;;;;;12.56;56.53;101098.63;10385288;28;20665;-62
2021/10/23 11:56:33;;;;;;;7.85;3.15;;;;;;;12.52;55.96;101096.25;10349603;28;20046;-63
2021/10/23 12:01:35;;;;;;;9.23;3.70;;;;;;;12.56;56.26;101096.00;10344783;28;20054;-63
2021/10/23 12:06:39;;;;;;;12.98;3.55;;;;;;;12.76;55.83;101100.28;10345221;28;20062;-63
2021/10/23 12:11:41;;;;;;;7.65;3.30;;;;;;;12.96;55.53;101097.50;10352988;28;20164;-62
2021/10/23 12:16:46;;;;;;;12.95;3.88;;;;;;;12.80;55.97;101094.78;10355542;28;20108;-63
2021/10/23 12:22:16;;;;;;;8.40;3.30;;;;;;;12.47;55.84;101098.25;10355980;28;20057;-63
2021/10/23 12:27:26;;;;;;;10.70;3.75;;;;;;;12.66;55.71;101102.50;10367645;28;20065;-63
2021/10/23 12:32:34;;;;;;;;;;;;;;;12.20;56.86;101095.16;10349971;28;20415;-63
2021/10/23 12:37:49;;;;;;;18.85;8.90;;;;;;;12.36;56.65;101093.53;10344727;28;20208;-63
2021/10/23 12:42:58;;;;;;;9.98;4.82;;;;;;;12.09;57.20;101092.19;10343299;28;20060;-62
2021/10/23 12:48:03;;;;;;;13.10;5.50;;;;;;;11.89;57.89;101090.53;10343844;28;20076;-63
2021/10/23 12:53:05;;;;;;;11.23;4.93;;;;;;;12.00;57.63;101092.63;10343443;28;20227;-63
2021/10/23 12:58:07;;;;;;;12.77;4.72;;;;;;;12.28;56.87;101087.81;10356708;28;20486;-63
2021/10/23 13:03:09;;;;;;;7.38;2.90;;;;;;;12.54;56.59;101092.63;10344888;28;20502;-63
2021/10/23 13:08:11;;;;;;;9.52;3.20;;;;;;;12.77;55.83;101080.97;10371814;28;20049;-63
2021/10/23 13:13:13;;;;;;;8.30;2.63;;;;;;;13.13;54.79;101073.84;10350347;28;20049;-63
2021/10/23 13:18:14;;;;;;;8.35;3.10;;;;;;;13.58;53.36;101067.94;10351520;28;20045;-63
2021/10/23 13:23:19;;;;;;;9.05;2.30;;;;;;;13.76;51.63;101052.03;10351933;28;20468;-63
2021/10/23 13:28:21;;;;;;;8.98;3.05;;;;;;;14.31;50.33;101051.53;10368072;28;20057;-63
2021/10/23 13:33:22;;;;;;;8.02;2.45;;;;;;;13.95;50.69;101054.47;10354279;28;20111;-63
2021/10/23 13:38:24;;;;;;;7.13;2.58;;;;;;;13.59;50.06;101051.25;10376319;28;20465;-62
2021/10/23 13:43:26;;;;;;;7.95;2.10;;;;;;;13.36;51.29;101060.34;10365190;28;20056;-62
2021/10/23 13:48:27;;;;;;;12.00;3.13;;;;;;;13.02;52.12;101057.81;10350528;28;20050;-63
2021/10/23 13:53:29;;;;;;;11.85;2.90;;;;;;;12.91;50.70;101058.34;10350628;28;20050;-63
2021/10/23 13:58:31;;;;;;;14.43;2.95;;;;;;;13.02;51.53;101060.44;10349999;28;20061;-63
2021/10/23 14:03:34;;;;;;;5.88;1.80;;;;;;;12.95;50.03;101054.63;10351338;28;20057;-63
2021/10/23 14:08:35;;;;;;;8.25;2.60;;;;;;;12.87;50.68;101059.44;10358216;28;20049;-64
2021/10/23 14:13:38;;;;;;;8.68;2.28;;;;;;;12.90;50.48;101061.06;10375456;28;20119;-63
2021/10/23 14:18:40;;;;;;;5.95;1.95;;;;;;;13.13;50.33;101059.88;10351991;28;20054;-63
2021/10/23 14:23:41;;;;;;;8.18;1.80;;;;;;;13.30;48.53;101055.41;10389366;28;20417;-63
2021/10/23 14:28:44;;;;;;;6.78;1.90;;;;;;;13.58;48.08;101049.53;10356780;28;20527;-62
2021/10/23 14:33:49;;;;;;;6.25;2.17;;;;;;;13.76;47.51;101059.91;10390708;28;20427;-63
2021/10/23 14:38:50;;;;;;;5.82;1.85;;;;;;;13.94;45.72;101051.94;10349449;28;20054;-63
2021/10/23 14:43:53;;;;;;;9.60;2.47;;;;;;;13.70;44.44;101057.63;10348814;28;20056;-63
2021/10/23 14:48:56;;;;;;;8.93;2.00;;;;;;;13.20;45.47;101059.47;10368414;28;20140;-63
2021/10/23 14:53:58;;;;;;;5.75;1.83;;;;;;;12.92;46.46;101070.53;10381342;28;20631;-63
2021/10/23 14:58:59;;;;;;;6.50;1.80;;;;;;;12.63;47.22;101058.06;10347326;28;20406;-62
2021/10/23 15:04:01;;;;;;;6.10;2.10;;;;;;;12.53;48.14;101061.22;10375202;28;20486;-63
2021/10/23 15:09:03;;;;;;;7.07;2.10;;;;;;;12.56;47.69;101066.28;10347913;28;20050;-63
2021/10/23 15:14:04;;;;;;;5.80;2.22;;;;;;;12.46;47.84;101070.31;10348753;28;20070;-64
2021/10/23 15:19:06;;;;;;;7.55;2.38;;;;;;;12.43;48.89;101073.94;10366972;28;20052;-64
2021/10/23 15:24:08;;;;;;;10.57;2.58;;;;;;;12.70;47.74;101061.22;10347512;28;20049;-64
2021/10/23 15:29:09;;;;;;;8.02;2.45;;;;;;;12.77;47.53;101065.22;10346257;28;20052;-64
2021/10/23 15:34:11;;;;;;;7.38;2.00;;;;;;;12.78;47.45;101073.00;10345627;28;20073;-64
2021/10/23 15:39:15;;;;;;;6.72;1.98;;;;;;;12.61;46.42;101065.16;10347508;28;20088;-64
2021/10/23 15:44:20;;;;;;;8.07;2.10;;;;;;;12.31;47.60;101076.31;10347885;28;20068;-64
2021/10/23 15:49:25;;;;;;;7.45;2.35;;;;;;;11.91;49.10;101078.19;10372534;28;20137;-65
2021/10/23 15:54:27;;;;;;;10.65;2.25;;;;;;;11.48;50.12;101077.63;10353767;28;20054;-64
2021/10/23 15:59:28;;;;;;;5.80;2.13;;;;;;;11.12;51.51;101085.34;10365130;28;20061;-64
2021/10/23 16:04:31;;;;;;;6.32;2.40;;;;;;;10.82;52.64;101084.00;10387952;28;20053;-64
2021/10/23 16:09:33;;;;;;;7.10;2.58;;;;;;;10.64;52.92;101082.19;10351952;28;20594;-64
2021/10/23 16:14:34;;;;;;;7.10;2.45;;;;;;;10.43;52.99;101086.53;10379437;28;20057;-64
2021/10/23 16:19:36;;;;;;;5.95;2.58;;;;;;;10.17;54.50;101087.59;10348028;28;20050;-64
2021/10/23 16:24:38;;;;;;;7.75;2.70;;;;;;;9.94;54.69;101081.53;10348036;28;20426;-64
2021/10/23 16:29:40;;;;;;;9.88;3.67;;;;;;;9.72;56.15;101085.88;10344304;28;20046;-64
2021/10/23 16:34:41;;;;;;;10.88;3.28;;;;;;;9.50;57.25;101097.09;10344741;28;20250;-64
2021/10/23 16:39:43;;;;;;;9.77;2.70;;;;;;;9.33;57.51;101099.50;10344970;28;20313;-64
2021/10/23 16:44:45;;;;;;;7.32;2.58;;;;;;;9.13;58.42;101101.97;10343817;28;20062;-64
2021/10/23 16:49:46;;;;;;;8.10;3.70;;;;;;;8.94;59.22;101110.47;10362066;28;20080;-64
2021/10/23 16:54:48;;;;;;;5.97;3.30;;;;;;;8.73;59.83;101119.84;10344672;28;20482;-64
2021/10/23 16:59:52;;;;;;;6.25;2.80;;;;;;;8.55;60.24;101123.94;10344522;28;20038;-64
2021/10/23 17:04:54;;;;;;;8.60;3.38;;;;;;;8.27;60.62;101117.03;10342428;28;20081;-64
2021/10/23 17:09:56;;;;;;;6.43;3.30;;;;;;;8.09;60.89;101128.00;10342699;28;20058;-64
2021/10/23 17:14:57;;;;;;;7.97;3.20;;;;;;;7.92;61.59;101120.69;10355840;28;20053;-64
2021/10/23 17:19:59;;;;;;;11.63;3.58;;;;;;;7.82;62.16;101129.69;10353598;28;20046;-64
2021/10/23 17:25:01;;;;;;;9.55;5.07;;;;;;;7.73;62.43;101127.38;10342346;28;20144;-64
2021/10/23 17:30:05;;;;;;;10.02;4.70;;;;;;;7.64;62.71;101133.69;10343766;28;20561;-64
2021/10/23 17:35:08;;;;;;;10.57;4.88;;;;;;;7.49;62.99;101136.72;10343266;28;20107;-64
2021/10/23 17:40:10;;;;;;;12.00;4.57;;;;;;;7.38;63.15;101133.56;10359079;28;20415;-64
2021/10/23 17:45:12;;;;;;;10.63;3.78;;;;;;;7.27;63.45;101147.75;10342506;28;20060;-64
2021/10/23 17:50:14;;;;;;;9.25;4.25;;;;;;;7.12;63.90;101144.66;10343356;28;20050;-64
2021/10/23 17:55:15;;;;;;;11.43;4.00;;;;;;;7.05;64.19;101148.34;10349525;28;20133;-64
2021/10/23 18:00:17;;;;;;;11.20;4.03;;;;;;;6.97;64.66;101139.00;10349054;28;20399;-64
2021/10/23 18:05:19;;;;;;;10.98;4.68;;;;;;;6.92;64.59;101152.13;10350604;28;20664;-64
2021/10/23 18:10:21;;;;;;;8.75;5.03;;;;;;;6.76;64.69;101149.94;10366003;28;20073;-64
2021/10/23 18:15:28;;;;;;;10.85;5.10;;;;;;;6.62;64.94;101146.84;10363387;28;20053;-64
2021/10/23 18:20:30;;;;;;;10.00;4.28;;;;;;;6.57;65.26;101152.13;10347682;28;20050;-64
2021/10/23 18:25:32;;;;;;;10.30;4.68;;;;;;;6.52;65.39;101150.56;10350259;28;20408;-64
2021/10/23 18:30:34;;;;;;;10.45;4.97;;;;;;;6.46;65.37;101148.09;10349180;28;20064;-64
2021/10/23 18:35:37;;;;;;;9.38;5.63;;;;;;;6.35;65.44;101144.00;10348694;28;20073;-64
2021/10/23 18:40:42;;;;;;;9.65;5.75;;;;;;;6.30;65.46;101145.88;10382305;28;20442;-64
2021/10/23 18:45:45;;;;;;;10.90;5.72;;;;;;;6.19;65.67;101144.34;10348650;28;20628;-64
2021/10/23 18:50:49;;;;;;;10.27;5.20;;;;;;;6.10;65.68;101153.19;10376543;28;20061;-64
2021/10/23 18:55:50;;;;;;;15.13;7.15;;;;;;;5.98;65.70;101147.44;10348984;28;20054;-64
2021/10/23 19:00:54;;;;;;;13.05;6.68;;;;;;;5.90;65.62;101157.97;10348704;28;20044;-64
2021/10/23 19:05:56;;;;;;;12.32;5.97;;;;;;;5.81;65.86;101159.91;10346865;28;20141;-64
2021/10/23 19:10:58;;;;;;;11.43;6.47;;;;;;;5.68;66.18;101154.13;10368350;28;20740;-64
2021/10/23 19:16:00;;;;;;;16.05;8.77;;;;;;;5.61;66.21;101146.50;10361360;28;20050;-64
2021/10/23 19:21:02;;;;;;;15.60;8.27;;;;;;;5.50;66.36;101139.78;10377514;28;20050;-64
2021/10/23 19:26:07;;;;;;;12.23;6.35;;;;;;;5.46;66.41;101145.06;10365700;28;20129;-64
2021/10/23 19:31:09;;;;;;;11.23;5.85;;;;;;;5.38;66.26;101144.34;10346796;28;20514;-64
2021/10/23 19:36:10;;;;;;;12.63;5.75;;;;;;;5.36;66.36;101146.13;10351527;28;20110;-64
2021/10/23 19:41:13;;;;;;;12.65;5.97;;;;;;;5.34;66.42;101153.06;10382976;28;20053;-64
2021/10/23 19:46:15;;;;;;;11.55;6.50;;;;;;;5.28;66.42;101167.03;10359260;28;20057;-64
2021/10/23 19:51:18;;;;;;;14.63;6.40;;;;;;;5.25;66.67;101166.22;10373225;28;20148;-64
2021/10/23 19:56:20;;;;;;;12.50;6.38;;;;;;;5.18;66.71;101170.69;10384150;28;20049;-64
2021/10/23 20:01:22;;;;;;;12.98;6.25;;;;;;;5.07;66.31;101177.78;10348001;28;20509;-64
2021/10/23 20:06:24;;;;;;;12.70;6.80;;;;;;;4.95;66.73;101175.41;10345914;28;20056;-64
2021/10/23 20:11:25;;;;;;;12.63;6.45;;;;;;;4.92;66.58;101178.06;10345867;28;20525;-64
2021/10/23 20:16:27;;;;;;;12.00;6.13;;;;;;;4.84;66.53;101184.25;10353045;28;20734;-64
2021/10/23 20:21:29;;;;;;;10.25;7.15;;;;;;;4.79;66.56;101183.44;10350162;28;20046;-64
2021/10/23 20:26:31;;;;;;;10.65;6.03;;;;;;;4.76;66.65;101186.09;10370541;28;20049;-64
2021/10/23 20:31:32;;;;;;;12.23;6.07;;;;;;;4.73;66.53;101184.41;10344019;28;20132;-63
2021/10/23 20:36:34;;;;;;;10.48;6.38;;;;;;;4.71;66.67;101186.16;10344132;28;20054;-64
2021/10/23 20:41:37;;;;;;;14.20;6.60;;;;;;;4.70;66.99;101184.44;10343943;28;20050;-64
2021/10/23 20:46:40;;;;;;;10.25;6.95;;;;;;;4.61;66.77;101190.66;10343508;28;20046;-64
2021/10/23 20:51:42;;;;;;;12.90;7.13;;;;;;;4.58;66.85;101197.59;10342518;28;20383;-64
2021/10/23 20:56:48;;;;;;;14.50;8.02;;;;;;;4.49;66.63;101188.25;10362333;28;20072;-64
2021/10/23 21:01:50;;;;;;;13.95;8.80;;;;;;;4.40;66.64;101195.28;10373043;28;20061;-64
2021/10/23 21:06:54;;;;;;;19.73;9.40;;;;;;;4.28;66.69;101196.31;10351891;28;20414;-65
2021/10/23 21:11:56;;;;;;;27.25;10.20;;;;;;;4.16;66.82;101183.56;10346739;28;20049;-64
2021/10/23 21:16:57;;;;;;;82.45;11.32;;;;;;;4.16;66.72;101193.91;10343248;28;20069;-64
2021/10/23 21:21:59;;;;;;;131.73;10.63;;;;;;;4.02;67.11;101193.25;10348684;28;20337;-64
2021/10/23 21:27:01;;;;;;;221.15;12.32;;;;;;;3.95;67.30;101191.59;10342166;28;20141;-64
2021/10/23 21:32:03;;;;;;;219.13;11.75;;;;;;;3.95;67.22;101185.53;10343756;28;20648;-64
2021/10/23 21:37:04;;;;;;;162.15;13.35;;;;;;;3.90;67.21;101182.19;10366111;28;20051;-64
2021/10/23 21:42:07;;;;;;;364.80;15.88;;;;;;;3.91;67.43;101191.63;10374413;28;20060;-64
2021/10/23 21:47:09;;;;;;;301.38;14.88;;;;;;;3.71;67.15;101189.28;10358243;28;20053;-64
2021/10/23 21:52:11;;;;;;;499.15;23.17;;;;;;;3.33;67.20;101188.84;10356698;28;20419;-64
2021/10/23 21:57:12;;;;;;;390.02;17.77;;;;;;;3.29;67.86;101187.16;10351339;28;20046;-64
2021/10/23 22:02:15;;;;;;;261.75;14.95;;;;;;;3.38;67.90;101189.63;10386500;28;20052;-64
2021/10/23 22:07:16;;;;;;;272.92;15.07;;;;;;;3.44;67.87;101197.31;10371096;28;20543;-63
2021/10/23 22:12:18;;;;;;;322.02;15.90;;;;;;;3.48;67.86;101180.91;10369714;28;20050;-64
2021/10/23 22:17:20;;;;;;;303.85;15.27;;;;;;;3.50;67.70;101177.44;10348424;28;20149;-64
2021/10/23 22:22:27;;;;;;;95.00;10.82;;;;;;;3.45;67.78;101175.78;10349625;28;20049;-64
2021/10/23 22:27:28;;;;;;;341.88;16.88;;;;;;;3.41;66.90;101180.13;10367834;28;20069;-65
2021/10/23 22:32:30;;;;;;;162.48;11.75;;;;;;;3.28;67.63;101168.22;10349464;28;20128;-64
2021/10/23 22:37:32;;;;;;;101.78;11.23;;;;;;;3.27;67.80;101173.41;10360332;28;20050;-64
2021/10/23 22:42:33;;;;;;;40.58;9.27;;;;;;;3.44;67.58;101174.06;10358228;28;20417;-64
2021/10/23 22:47:35;;;;;;;90.38;10.55;;;;;;;3.47;67.63;101171.44;10348122;28;20054;-64
2021/10/23 22:52:37;;;;;;;161.85;13.48;;;;;;;3.57;67.68;101178.22;10347803;28;20050;-64
2021/10/23 22:57:39;;;;;;;376.75;16.92;;;;;;;3.53;67.57;101176.56;10348447;28;20060;-64
2021/10/23 23:02:42;;;;;;;80.45;9.88;;;;;;;3.71;67.85;101171.16;10348713;28;20317;-64
2021/10/23 23:07:44;;;;;;;280.77;19.05;;;;;;;3.63;67.30;101183.34;10348222;28;20446;-63
2021/10/23 23:12:45;;;;;;;115.70;13.70;;;;;;;3.67;67.82;101174.66;10347604;28;20049;-64